sensor_id;sensor_type;location;lat;lon;timestamp;temperature;humidity
65058;HTU21D;51644;51.068;5.860;2022-09-20T00:00:05;15.28;74.60
65058;HTU21D;51644;51.068;5.860;2022-09-20T00:01:10;15.28;74.44
65058;HTU21D;51644;51.068;5.860;2022-09-20T00:02:08;15.25;74.32
65058;HTU21D;51644;51.068;5.860;2022-09-20T00:03:08;15.23;74.23
65058;HTU21D;51644;51.068;5.860;2022-09-20T00:04:09;15.24;74.33
65058;HTU21D;51644;51.068;5.860;2022-09-20T00:05:07;15.23;74.47
65058;HTU21D;51644;51.068;5.860;2022-09-20T00:06:08;15.23;74.53
65058;HTU21D;51644;51.068;5.860;2022-09-20T00:07:07;15.22;74.38
65058;HTU21D;51644;51.068;5.860;2022-09-20T00:08:08;15.21;74.34
65058;HTU21D;51644;51.068;5.860;2022-09-20T00:09:07;15.22;74.41
65058;HTU21D;51644;51.068;5.860;2022-09-20T00:10:06;15.18;74.27
65058;HTU21D;51644;51.068;5.860;2022-09-20T00:11:07;15.17;74.18
65058;HTU21D;51644;51.068;5.860;2022-09-20T00:12:07;15.15;74.28
65058;HTU21D;51644;51.068;5.860;2022-09-20T00:13:08;15.14;74.37
65058;HTU21D;51644;51.068;5.860;2022-09-20T00:14:08;15.15;74.41
65058;HTU21D;51644;51.068;5.860;2022-09-20T00:15:07;15.14;74.39
65058;HTU21D;51644;51.068;5.860;2022-09-20T00:16:09;15.14;74.47
65058;HTU21D;51644;51.068;5.860;2022-09-20T00:17:08;15.13;74.59
65058;HTU21D;51644;51.068;5.860;2022-09-20T00:18:08;15.12;74.77
65058;HTU21D;51644;51.068;5.860;2022-09-20T00:19:07;15.10;74.85
65058;HTU21D;51644;51.068;5.860;2022-09-20T00:20:06;15.08;74.99
65058;HTU21D;51644;51.068;5.860;2022-09-20T00:21:06;15.07;75.06
65058;HTU21D;51644;51.068;5.860;2022-09-20T00:22:05;15.04;75.12
65058;HTU21D;51644;51.068;5.860;2022-09-20T00:23:03;15.02;75.28
65058;HTU21D;51644;51.068;5.860;2022-09-20T00:24:03;15.03;75.39
65058;HTU21D;51644;51.068;5.860;2022-09-20T00:25:02;15.03;75.50
65058;HTU21D;51644;51.068;5.860;2022-09-20T00:26:02;15.04;75.59
65058;HTU21D;51644;51.068;5.860;2022-09-20T00:27:02;15.04;75.71
65058;HTU21D;51644;51.068;5.860;2022-09-20T00:28:01;15.04;75.75
65058;HTU21D;51644;51.068;5.860;2022-09-20T00:29:00;15.03;75.63
65058;HTU21D;51644;51.068;5.860;2022-09-20T00:29:58;15.06;75.45
65058;HTU21D;51644;51.068;5.860;2022-09-20T00:30:57;15.06;75.40
65058;HTU21D;51644;51.068;5.860;2022-09-20T00:31:55;15.07;75.39
65058;HTU21D;51644;51.068;5.860;2022-09-20T00:32:54;15.07;75.35
65058;HTU21D;51644;51.068;5.860;2022-09-20T00:33:54;15.08;75.41
65058;HTU21D;51644;51.068;5.860;2022-09-20T00:35:11;15.08;75.48
65058;HTU21D;51644;51.068;5.860;2022-09-20T00:36:10;15.10;75.50
65058;HTU21D;51644;51.068;5.860;2022-09-20T00:37:09;15.12;75.57
65058;HTU21D;51644;51.068;5.860;2022-09-20T00:38:08;15.11;75.49
65058;HTU21D;51644;51.068;5.860;2022-09-20T00:39:12;15.10;75.43
65058;HTU21D;51644;51.068;5.860;2022-09-20T00:40:18;15.09;75.46
65058;HTU21D;51644;51.068;5.860;2022-09-20T00:41:17;15.07;75.49
65058;HTU21D;51644;51.068;5.860;2022-09-20T00:42:16;15.07;75.58
65058;HTU21D;51644;51.068;5.860;2022-09-20T00:43:16;15.07;75.58
65058;HTU21D;51644;51.068;5.860;2022-09-20T00:44:40;15.04;75.73
65058;HTU21D;51644;51.068;5.860;2022-09-20T00:45:48;15.03;75.89
65058;HTU21D;51644;51.068;5.860;2022-09-20T00:46:47;15.02;75.91
65058;HTU21D;51644;51.068;5.860;2022-09-20T00:48:06;15.04;75.90
65058;HTU21D;51644;51.068;5.860;2022-09-20T00:49:16;15.03;75.88
65058;HTU21D;51644;51.068;5.860;2022-09-20T00:50:35;15.06;75.73
65058;HTU21D;51644;51.068;5.860;2022-09-20T00:51:38;15.07;75.86
65058;HTU21D;51644;51.068;5.860;2022-09-20T00:52:44;15.04;76.02
65058;HTU21D;51644;51.068;5.860;2022-09-20T00:53:48;15.03;76.18
65058;HTU21D;51644;51.068;5.860;2022-09-20T00:54:48;15.03;76.34
65058;HTU21D;51644;51.068;5.860;2022-09-20T00:56:50;15.01;76.40
65058;HTU21D;51644;51.068;5.860;2022-09-20T00:57:49;15.02;76.31
65058;HTU21D;51644;51.068;5.860;2022-09-20T00:58:57;15.01;76.28
65058;HTU21D;51644;51.068;5.860;2022-09-20T00:59:58;15.02;76.30
65058;HTU21D;51644;51.068;5.860;2022-09-20T01:00:58;15.03;76.31
65058;HTU21D;51644;51.068;5.860;2022-09-20T01:02:13;15.02;76.31
65058;HTU21D;51644;51.068;5.860;2022-09-20T01:03:16;15.01;76.21
65058;HTU21D;51644;51.068;5.860;2022-09-20T01:04:18;14.97;76.15
65058;HTU21D;51644;51.068;5.860;2022-09-20T01:05:19;14.95;76.18
65058;HTU21D;51644;51.068;5.860;2022-09-20T01:06:18;14.95;76.24
65058;HTU21D;51644;51.068;5.860;2022-09-20T01:07:20;14.93;76.39
65058;HTU21D;51644;51.068;5.860;2022-09-20T01:08:22;14.93;76.43
65058;HTU21D;51644;51.068;5.860;2022-09-20T01:09:22;14.92;76.43
65058;HTU21D;51644;51.068;5.860;2022-09-20T01:10:21;14.92;76.43
65058;HTU21D;51644;51.068;5.860;2022-09-20T01:11:19;14.89;76.43
65058;HTU21D;51644;51.068;5.860;2022-09-20T01:12:21;14.88;76.55
65058;HTU21D;51644;51.068;5.860;2022-09-20T01:13:20;14.86;76.67
65058;HTU21D;51644;51.068;5.860;2022-09-20T01:14:19;14.84;76.70
65058;HTU21D;51644;51.068;5.860;2022-09-20T01:15:22;14.83;76.67
65058;HTU21D;51644;51.068;5.860;2022-09-20T01:16:24;14.80;76.75
65058;HTU21D;51644;51.068;5.860;2022-09-20T01:17:27;14.81;76.67
65058;HTU21D;51644;51.068;5.860;2022-09-20T01:18:31;14.79;76.70
65058;HTU21D;51644;51.068;5.860;2022-09-20T01:20:55;14.78;76.79
65058;HTU21D;51644;51.068;5.860;2022-09-20T01:21:54;14.78;76.73
65058;HTU21D;51644;51.068;5.860;2022-09-20T01:24:24;14.74;76.81
65058;HTU21D;51644;51.068;5.860;2022-09-20T01:28:12;14.70;76.70
65058;HTU21D;51644;51.068;5.860;2022-09-20T01:29:16;14.70;76.66
65058;HTU21D;51644;51.068;5.860;2022-09-20T01:30:28;14.69;76.64
65058;HTU21D;51644;51.068;5.860;2022-09-20T01:31:35;14.66;76.63
65058;HTU21D;51644;51.068;5.860;2022-09-20T01:32:49;14.63;76.63
65058;HTU21D;51644;51.068;5.860;2022-09-20T01:33:53;14.58;76.70
65058;HTU21D;51644;51.068;5.860;2022-09-20T01:34:59;14.58;76.67
65058;HTU21D;51644;51.068;5.860;2022-09-20T01:36:03;14.54;76.76
65058;HTU21D;51644;51.068;5.860;2022-09-20T01:37:19;14.48;76.89
65058;HTU21D;51644;51.068;5.860;2022-09-20T01:38:33;14.43;77.05
65058;HTU21D;51644;51.068;5.860;2022-09-20T01:39:51;14.40;77.12
65058;HTU21D;51644;51.068;5.860;2022-09-20T01:42:14;14.35;77.21
65058;HTU21D;51644;51.068;5.860;2022-09-20T01:45:45;14.28;77.37
65058;HTU21D;51644;51.068;5.860;2022-09-20T01:46:53;14.26;77.40
65058;HTU21D;51644;51.068;5.860;2022-09-20T01:48:12;14.26;77.44
65058;HTU21D;51644;51.068;5.860;2022-09-20T01:50:34;14.24;77.49
65058;HTU21D;51644;51.068;5.860;2022-09-20T01:52:25;14.23;77.63
65058;HTU21D;51644;51.068;5.860;2022-09-20T01:54:35;14.23;77.76
65058;HTU21D;51644;51.068;5.860;2022-09-20T01:56:55;14.25;77.86
65058;HTU21D;51644;51.068;5.860;2022-09-20T02:00:11;14.34;77.93
65058;HTU21D;51644;51.068;5.860;2022-09-20T02:04:19;14.44;77.87
65058;HTU21D;51644;51.068;5.860;2022-09-20T02:08:53;14.55;77.87
65058;HTU21D;51644;51.068;5.860;2022-09-20T02:11:55;14.59;77.74
65058;HTU21D;51644;51.068;5.860;2022-09-20T02:12:55;14.62;77.75
65058;HTU21D;51644;51.068;5.860;2022-09-20T02:17:42;14.63;77.69
65058;HTU21D;51644;51.068;5.860;2022-09-20T02:20:06;14.62;77.90
65058;HTU21D;51644;51.068;5.860;2022-09-20T02:22:30;14.62;78.11
65058;HTU21D;51644;51.068;5.860;2022-09-20T02:25:17;14.58;78.10
65058;HTU21D;51644;51.068;5.860;2022-09-20T02:29:32;14.54;78.37
65058;HTU21D;51644;51.068;5.860;2022-09-20T02:32:19;14.51;78.58
65058;HTU21D;51644;51.068;5.860;2022-09-20T02:36:29;14.36;79.00
65058;HTU21D;51644;51.068;5.860;2022-09-20T02:43:15;14.28;79.47
65058;HTU21D;51644;51.068;5.860;2022-09-20T02:45:34;14.27;79.46
65058;HTU21D;51644;51.068;5.860;2022-09-20T02:48:05;14.28;79.53
65058;HTU21D;51644;51.068;5.860;2022-09-20T02:50:30;14.30;79.58
65058;HTU21D;51644;51.068;5.860;2022-09-20T02:51:41;14.29;79.59
65058;HTU21D;51644;51.068;5.860;2022-09-20T02:53:07;14.30;79.53
65058;HTU21D;51644;51.068;5.860;2022-09-20T03:01:44;14.22;79.49
65058;HTU21D;51644;51.068;5.860;2022-09-20T03:03:52;14.19;79.62
65058;HTU21D;51644;51.068;5.860;2022-09-20T03:04:50;14.18;79.73
65058;HTU21D;51644;51.068;5.860;2022-09-20T03:06:04;14.15;79.87
65058;HTU21D;51644;51.068;5.860;2022-09-20T03:07:21;14.17;79.92
65058;HTU21D;51644;51.068;5.860;2022-09-20T03:09:10;14.18;79.95
65058;HTU21D;51644;51.068;5.860;2022-09-20T03:11:26;14.18;79.98
65058;HTU21D;51644;51.068;5.860;2022-09-20T03:12:32;14.18;80.06
65058;HTU21D;51644;51.068;5.860;2022-09-20T03:15:22;14.17;80.11
65058;HTU21D;51644;51.068;5.860;2022-09-20T03:16:30;14.17;80.17
65058;HTU21D;51644;51.068;5.860;2022-09-20T03:19:32;14.14;80.30
65058;HTU21D;51644;51.068;5.860;2022-09-20T03:21:10;14.13;80.30
65058;HTU21D;51644;51.068;5.860;2022-09-20T03:24:16;14.08;80.43
65058;HTU21D;51644;51.068;5.860;2022-09-20T03:26:57;14.11;80.49
65058;HTU21D;51644;51.068;5.860;2022-09-20T03:28:28;14.13;80.40
65058;HTU21D;51644;51.068;5.860;2022-09-20T03:34:08;14.19;80.33
65058;HTU21D;51644;51.068;5.860;2022-09-20T03:35:27;14.20;80.33
65058;HTU21D;51644;51.068;5.860;2022-09-20T03:36:39;14.22;80.32
65058;HTU21D;51644;51.068;5.860;2022-09-20T03:38:12;14.23;80.29
65058;HTU21D;51644;51.068;5.860;2022-09-20T03:42:00;14.20;80.27
65058;HTU21D;51644;51.068;5.860;2022-09-20T03:44:42;14.19;80.37
65058;HTU21D;51644;51.068;5.860;2022-09-20T03:46:37;14.19;80.33
65058;HTU21D;51644;51.068;5.860;2022-09-20T03:47:39;14.20;80.46
65058;HTU21D;51644;51.068;5.860;2022-09-20T03:48:53;14.20;80.52
65058;HTU21D;51644;51.068;5.860;2022-09-20T03:51:34;14.24;80.45
65058;HTU21D;51644;51.068;5.860;2022-09-20T03:53:05;14.27;80.40
65058;HTU21D;51644;51.068;5.860;2022-09-20T03:58:46;14.28;80.32
65058;HTU21D;51644;51.068;5.860;2022-09-20T03:59:51;14.30;80.30
65058;HTU21D;51644;51.068;5.860;2022-09-20T04:02:34;14.33;80.23
65058;HTU21D;51644;51.068;5.860;2022-09-20T04:04:56;14.37;80.06
65058;HTU21D;51644;51.068;5.860;2022-09-20T04:06:21;14.37;79.92
65058;HTU21D;51644;51.068;5.860;2022-09-20T04:13:46;14.27;79.98
65058;HTU21D;51644;51.068;5.860;2022-09-20T04:15:03;14.27;80.00
65058;HTU21D;51644;51.068;5.860;2022-09-20T04:20:05;14.20;80.32
65058;HTU21D;51644;51.068;5.860;2022-09-20T04:22:28;14.18;80.63
65058;HTU21D;51644;51.068;5.860;2022-09-20T04:24:52;14.14;80.79
65058;HTU21D;51644;51.068;5.860;2022-09-20T04:25:54;14.10;80.72
65058;HTU21D;51644;51.068;5.860;2022-09-20T04:26:59;14.08;80.77
65058;HTU21D;51644;51.068;5.860;2022-09-20T04:28:23;14.07;80.86
65058;HTU21D;51644;51.068;5.860;2022-09-20T04:29:41;14.00;80.96
65058;HTU21D;51644;51.068;5.860;2022-09-20T04:30:42;13.97;81.14
65058;HTU21D;51644;51.068;5.860;2022-09-20T04:32:17;13.95;81.17
65058;HTU21D;51644;51.068;5.860;2022-09-20T04:33:27;13.93;81.23
65058;HTU21D;51644;51.068;5.860;2022-09-20T04:34:33;13.91;81.32
65058;HTU21D;51644;51.068;5.860;2022-09-20T04:36:26;13.91;81.41
65058;HTU21D;51644;51.068;5.860;2022-09-20T04:37:36;13.93;81.49
65058;HTU21D;51644;51.068;5.860;2022-09-20T04:38:36;13.92;81.48
65058;HTU21D;51644;51.068;5.860;2022-09-20T04:39:48;13.94;81.49
65058;HTU21D;51644;51.068;5.860;2022-09-20T04:49:19;13.90;82.08
65058;HTU21D;51644;51.068;5.860;2022-09-20T04:53:12;13.85;82.33
65058;HTU21D;51644;51.068;5.860;2022-09-20T04:59:43;13.79;82.51
65058;HTU21D;51644;51.068;5.860;2022-09-20T05:08:19;13.77;83.04
65058;HTU21D;51644;51.068;5.860;2022-09-20T05:16:25;13.84;83.05
65058;HTU21D;51644;51.068;5.860;2022-09-20T05:19:05;13.85;82.84
65058;HTU21D;51644;51.068;5.860;2022-09-20T05:25:54;13.83;82.87
65058;HTU21D;51644;51.068;5.860;2022-09-20T05:28:58;13.82;82.93
65058;HTU21D;51644;51.068;5.860;2022-09-20T05:30:11;13.83;82.97
65058;HTU21D;51644;51.068;5.860;2022-09-20T05:31:43;13.81;82.98
65058;HTU21D;51644;51.068;5.860;2022-09-20T05:34:18;13.80;83.01
65058;HTU21D;51644;51.068;5.860;2022-09-20T05:35:35;13.80;83.08
65058;HTU21D;51644;51.068;5.860;2022-09-20T05:36:48;13.81;83.13
65058;HTU21D;51644;51.068;5.860;2022-09-20T05:40:32;13.92;82.95
65058;HTU21D;51644;51.068;5.860;2022-09-20T05:42:00;13.95;82.86
65058;HTU21D;51644;51.068;5.860;2022-09-20T05:43:26;14.00;82.69
65058;HTU21D;51644;51.068;5.860;2022-09-20T05:51:08;14.01;82.48
65058;HTU21D;51644;51.068;5.860;2022-09-20T05:52:26;13.99;82.54
65058;HTU21D;51644;51.068;5.860;2022-09-20T06:01:22;13.84;83.26
65058;HTU21D;51644;51.068;5.860;2022-09-20T06:11:20;13.74;83.81
65058;HTU21D;51644;51.068;5.860;2022-09-20T06:12:46;13.76;83.71
65058;HTU21D;51644;51.068;5.860;2022-09-20T06:15:11;13.80;83.65
65058;HTU21D;51644;51.068;5.860;2022-09-20T06:16:48;13.83;83.60
65058;HTU21D;51644;51.068;5.860;2022-09-20T06:18:06;13.86;83.53
65058;HTU21D;51644;51.068;5.860;2022-09-20T06:19:20;13.91;83.46
65058;HTU21D;51644;51.068;5.860;2022-09-20T06:22:49;14.11;83.06
65058;HTU21D;51644;51.068;5.860;2022-09-20T06:23:56;14.19;82.88
65058;HTU21D;51644;51.068;5.860;2022-09-20T06:26:14;14.32;82.66
65058;HTU21D;51644;51.068;5.860;2022-09-20T06:27:21;14.37;82.41
65058;HTU21D;51644;51.068;5.860;2022-09-20T06:28:30;14.42;82.19
65058;HTU21D;51644;51.068;5.860;2022-09-20T06:29:39;14.45;82.02
65058;HTU21D;51644;51.068;5.860;2022-09-20T06:30:45;14.45;81.87
65058;HTU21D;51644;51.068;5.860;2022-09-20T06:31:44;14.49;81.83
65058;HTU21D;51644;51.068;5.860;2022-09-20T06:32:58;14.48;81.78
65058;HTU21D;51644;51.068;5.860;2022-09-20T06:34:07;14.51;81.77
65058;HTU21D;51644;51.068;5.860;2022-09-20T06:35:07;14.54;81.74
65058;HTU21D;51644;51.068;5.860;2022-09-20T06:36:22;14.57;81.65
65058;HTU21D;51644;51.068;5.860;2022-09-20T06:37:52;14.62;81.50
65058;HTU21D;51644;51.068;5.860;2022-09-20T06:40:52;14.63;81.35
65058;HTU21D;51644;51.068;5.860;2022-09-20T06:42:17;14.63;81.30
65058;HTU21D;51644;51.068;5.860;2022-09-20T06:43:16;14.65;81.32
65058;HTU21D;51644;51.068;5.860;2022-09-20T06:44:16;14.65;81.27
65058;HTU21D;51644;51.068;5.860;2022-09-20T06:45:15;14.64;81.31
65058;HTU21D;51644;51.068;5.860;2022-09-20T06:46:13;14.65;81.23
65058;HTU21D;51644;51.068;5.860;2022-09-20T06:47:14;14.66;81.15
65058;HTU21D;51644;51.068;5.860;2022-09-20T06:48:13;14.69;81.05
65058;HTU21D;51644;51.068;5.860;2022-09-20T06:49:12;14.72;80.97
65058;HTU21D;51644;51.068;5.860;2022-09-20T06:50:15;14.74;80.89
65058;HTU21D;51644;51.068;5.860;2022-09-20T06:51:14;14.80;80.91
65058;HTU21D;51644;51.068;5.860;2022-09-20T06:52:15;14.79;80.74
65058;HTU21D;51644;51.068;5.860;2022-09-20T06:53:17;14.79;80.52
65058;HTU21D;51644;51.068;5.860;2022-09-20T06:54:20;14.80;80.45
65058;HTU21D;51644;51.068;5.860;2022-09-20T06:55:28;14.81;80.34
65058;HTU21D;51644;51.068;5.860;2022-09-20T06:56:30;14.84;80.26
65058;HTU21D;51644;51.068;5.860;2022-09-20T06:57:35;14.89;80.19
65058;HTU21D;51644;51.068;5.860;2022-09-20T06:58:35;14.94;80.09
65058;HTU21D;51644;51.068;5.860;2022-09-20T06:59:33;14.99;79.86
65058;HTU21D;51644;51.068;5.860;2022-09-20T07:00:32;15.07;79.59
65058;HTU21D;51644;51.068;5.860;2022-09-20T07:01:30;15.08;79.33
65058;HTU21D;51644;51.068;5.860;2022-09-20T07:02:29;15.13;79.11
65058;HTU21D;51644;51.068;5.860;2022-09-20T07:03:27;15.19;78.93
65058;HTU21D;51644;51.068;5.860;2022-09-20T07:04:26;15.26;78.81
65058;HTU21D;51644;51.068;5.860;2022-09-20T07:05:24;15.34;78.50
65058;HTU21D;51644;51.068;5.860;2022-09-20T07:06:24;15.38;78.35
65058;HTU21D;51644;51.068;5.860;2022-09-20T07:07:24;15.45;78.07
65058;HTU21D;51644;51.068;5.860;2022-09-20T07:08:22;15.53;77.96
65058;HTU21D;51644;51.068;5.860;2022-09-20T07:09:21;15.55;77.73
65058;HTU21D;51644;51.068;5.860;2022-09-20T07:10:20;15.59;77.67
65058;HTU21D;51644;51.068;5.860;2022-09-20T07:11:18;15.66;77.45
65058;HTU21D;51644;51.068;5.860;2022-09-20T07:12:17;15.71;77.15
65058;HTU21D;51644;51.068;5.860;2022-09-20T07:13:16;15.77;76.79
65058;HTU21D;51644;51.068;5.860;2022-09-20T07:14:15;15.84;76.50
65058;HTU21D;51644;51.068;5.860;2022-09-20T07:15:14;15.87;76.21
65058;HTU21D;51644;51.068;5.860;2022-09-20T07:16:13;15.95;75.94
65058;HTU21D;51644;51.068;5.860;2022-09-20T07:17:12;16.00;75.72
65058;HTU21D;51644;51.068;5.860;2022-09-20T07:18:11;16.04;75.60
65058;HTU21D;51644;51.068;5.860;2022-09-20T07:19:09;16.12;75.44
65058;HTU21D;51644;51.068;5.860;2022-09-20T07:20:08;16.20;75.25
65058;HTU21D;51644;51.068;5.860;2022-09-20T07:21:10;16.28;74.91
65058;HTU21D;51644;51.068;5.860;2022-09-20T07:22:09;16.35;74.57
65058;HTU21D;51644;51.068;5.860;2022-09-20T07:23:08;16.40;74.42
65058;HTU21D;51644;51.068;5.860;2022-09-20T07:24:07;16.46;74.34
65058;HTU21D;51644;51.068;5.860;2022-09-20T07:25:06;16.51;74.24
65058;HTU21D;51644;51.068;5.860;2022-09-20T07:26:11;16.58;73.89
65058;HTU21D;51644;51.068;5.860;2022-09-20T07:27:13;16.63;73.83
65058;HTU21D;51644;51.068;5.860;2022-09-20T07:28:12;16.67;73.65
65058;HTU21D;51644;51.068;5.860;2022-09-20T07:29:10;16.72;73.42
65058;HTU21D;51644;51.068;5.860;2022-09-20T07:30:09;16.76;73.32
65058;HTU21D;51644;51.068;5.860;2022-09-20T07:31:09;16.85;73.17
65058;HTU21D;51644;51.068;5.860;2022-09-20T07:32:08;16.94;72.75
65058;HTU21D;51644;51.068;5.860;2022-09-20T07:33:06;17.00;72.58
65058;HTU21D;51644;51.068;5.860;2022-09-20T07:34:07;17.02;72.09
65058;HTU21D;51644;51.068;5.860;2022-09-20T07:35:10;17.05;72.08
65058;HTU21D;51644;51.068;5.860;2022-09-20T07:36:09;17.07;72.00
65058;HTU21D;51644;51.068;5.860;2022-09-20T07:37:09;17.09;71.93
65058;HTU21D;51644;51.068;5.860;2022-09-20T07:38:08;17.11;71.88
65058;HTU21D;51644;51.068;5.860;2022-09-20T07:39:08;17.14;71.90
65058;HTU21D;51644;51.068;5.860;2022-09-20T07:40:09;17.16;71.76
65058;HTU21D;51644;51.068;5.860;2022-09-20T07:41:08;17.18;71.55
65058;HTU21D;51644;51.068;5.860;2022-09-20T07:42:07;17.20;71.41
65058;HTU21D;51644;51.068;5.860;2022-09-20T07:43:06;17.24;71.17
65058;HTU21D;51644;51.068;5.860;2022-09-20T07:44:05;17.26;71.07
65058;HTU21D;51644;51.068;5.860;2022-09-20T07:45:22;17.26;70.93
65058;HTU21D;51644;51.068;5.860;2022-09-20T07:46:21;17.29;70.81
65058;HTU21D;51644;51.068;5.860;2022-09-20T07:47:21;17.26;70.85
65058;HTU21D;51644;51.068;5.860;2022-09-20T07:48:25;17.25;70.90
65058;HTU21D;51644;51.068;5.860;2022-09-20T07:49:26;17.23;70.89
65058;HTU21D;51644;51.068;5.860;2022-09-20T07:50:24;17.24;70.94
65058;HTU21D;51644;51.068;5.860;2022-09-20T07:51:23;17.28;70.93
65058;HTU21D;51644;51.068;5.860;2022-09-20T07:52:22;17.33;70.71
65058;HTU21D;51644;51.068;5.860;2022-09-20T07:53:21;17.39;70.37
65058;HTU21D;51644;51.068;5.860;2022-09-20T07:54:20;17.43;70.21
65058;HTU21D;51644;51.068;5.860;2022-09-20T07:55:18;17.46;70.26
65058;HTU21D;51644;51.068;5.860;2022-09-20T07:56:17;17.51;70.07
65058;HTU21D;51644;51.068;5.860;2022-09-20T07:57:16;17.54;69.99
65058;HTU21D;51644;51.068;5.860;2022-09-20T07:58:14;17.59;69.87
65058;HTU21D;51644;51.068;5.860;2022-09-20T07:59:14;17.62;69.69
65058;HTU21D;51644;51.068;5.860;2022-09-20T08:00:12;17.68;69.37
65058;HTU21D;51644;51.068;5.860;2022-09-20T08:01:11;17.69;69.26
65058;HTU21D;51644;51.068;5.860;2022-09-20T08:02:14;17.73;69.13
65058;HTU21D;51644;51.068;5.860;2022-09-20T08:03:13;17.75;68.94
65058;HTU21D;51644;51.068;5.860;2022-09-20T08:04:11;17.76;68.93
65058;HTU21D;51644;51.068;5.860;2022-09-20T08:05:10;17.73;68.94
65058;HTU21D;51644;51.068;5.860;2022-09-20T08:06:11;17.67;68.94
65058;HTU21D;51644;51.068;5.860;2022-09-20T08:07:13;17.65;69.06
65058;HTU21D;51644;51.068;5.860;2022-09-20T08:08:12;17.61;69.09
65058;HTU21D;51644;51.068;5.860;2022-09-20T08:09:12;17.60;68.95
65058;HTU21D;51644;51.068;5.860;2022-09-20T08:10:10;17.56;69.11
65058;HTU21D;51644;51.068;5.860;2022-09-20T08:11:15;17.54;69.10
65058;HTU21D;51644;51.068;5.860;2022-09-20T08:12:14;17.51;69.21
65058;HTU21D;51644;51.068;5.860;2022-09-20T08:13:14;17.45;69.28
65058;HTU21D;51644;51.068;5.860;2022-09-20T08:14:15;17.41;69.46
65058;HTU21D;51644;51.068;5.860;2022-09-20T08:15:14;17.38;69.64
65058;HTU21D;51644;51.068;5.860;2022-09-20T08:16:13;17.39;69.80
65058;HTU21D;51644;51.068;5.860;2022-09-20T08:17:12;17.40;69.81
65058;HTU21D;51644;51.068;5.860;2022-09-20T08:18:10;17.41;69.77
65058;HTU21D;51644;51.068;5.860;2022-09-20T08:19:16;17.45;69.73
65058;HTU21D;51644;51.068;5.860;2022-09-20T08:20:15;17.49;69.68
65058;HTU21D;51644;51.068;5.860;2022-09-20T08:21:14;17.52;69.52
65058;HTU21D;51644;51.068;5.860;2022-09-20T08:22:13;17.58;69.42
65058;HTU21D;51644;51.068;5.860;2022-09-20T08:23:11;17.62;68.74
65058;HTU21D;51644;51.068;5.860;2022-09-20T08:24:10;17.66;69.20
65058;HTU21D;51644;51.068;5.860;2022-09-20T08:25:08;17.69;69.03
65058;HTU21D;51644;51.068;5.860;2022-09-20T08:26:11;17.74;68.81
65058;HTU21D;51644;51.068;5.860;2022-09-20T08:27:10;17.79;68.68
65058;HTU21D;51644;51.068;5.860;2022-09-20T08:28:10;17.83;68.67
65058;HTU21D;51644;51.068;5.860;2022-09-20T08:29:09;17.84;68.64
65058;HTU21D;51644;51.068;5.860;2022-09-20T08:30:08;17.85;68.58
65058;HTU21D;51644;51.068;5.860;2022-09-20T08:31:13;17.87;68.62
65058;HTU21D;51644;51.068;5.860;2022-09-20T08:32:11;17.89;68.65
65058;HTU21D;51644;51.068;5.860;2022-09-20T08:33:10;17.90;68.58
65058;HTU21D;51644;51.068;5.860;2022-09-20T08:34:12;17.92;68.52
65058;HTU21D;51644;51.068;5.860;2022-09-20T08:35:12;17.93;68.45
65058;HTU21D;51644;51.068;5.860;2022-09-20T08:36:14;17.96;68.44
65058;HTU21D;51644;51.068;5.860;2022-09-20T08:37:13;17.99;68.38
65058;HTU21D;51644;51.068;5.860;2022-09-20T08:38:11;18.05;68.47
65058;HTU21D;51644;51.068;5.860;2022-09-20T08:39:10;18.10;68.36
65058;HTU21D;51644;51.068;5.860;2022-09-20T08:40:13;18.15;68.15
65058;HTU21D;51644;51.068;5.860;2022-09-20T08:41:36;18.19;68.01
65058;HTU21D;51644;51.068;5.860;2022-09-20T08:42:36;18.22;67.86
65058;HTU21D;51644;51.068;5.860;2022-09-20T08:43:45;18.25;67.52
65058;HTU21D;51644;51.068;5.860;2022-09-20T08:44:56;18.29;67.16
65058;HTU21D;51644;51.068;5.860;2022-09-20T08:45:58;18.32;67.01
65058;HTU21D;51644;51.068;5.860;2022-09-20T08:47:20;18.35;66.95
65058;HTU21D;51644;51.068;5.860;2022-09-20T08:48:27;18.35;66.77
65058;HTU21D;51644;51.068;5.860;2022-09-20T08:49:29;18.38;66.72
65058;HTU21D;51644;51.068;5.860;2022-09-20T08:50:28;18.43;66.59
65058;HTU21D;51644;51.068;5.860;2022-09-20T08:51:31;18.44;65.30
65058;HTU21D;51644;51.068;5.860;2022-09-20T08:52:33;18.50;66.13
65058;HTU21D;51644;51.068;5.860;2022-09-20T08:53:33;18.52;65.75
65058;HTU21D;51644;51.068;5.860;2022-09-20T08:54:33;18.53;65.94
65058;HTU21D;51644;51.068;5.860;2022-09-20T08:55:32;18.57;65.76
65058;HTU21D;51644;51.068;5.860;2022-09-20T08:56:35;18.63;65.53
65058;HTU21D;51644;51.068;5.860;2022-09-20T08:57:34;18.67;64.80
65058;HTU21D;51644;51.068;5.860;2022-09-20T08:58:35;18.80;65.02
65058;HTU21D;51644;51.068;5.860;2022-09-20T08:59:33;18.92;64.65
65058;HTU21D;51644;51.068;5.860;2022-09-20T09:00:32;19.03;64.34
65058;HTU21D;51644;51.068;5.860;2022-09-20T09:01:31;19.10;64.00
65058;HTU21D;51644;51.068;5.860;2022-09-20T09:02:32;19.23;63.82
65058;HTU21D;51644;51.068;5.860;2022-09-20T09:03:32;19.32;63.61
65058;HTU21D;51644;51.068;5.860;2022-09-20T09:04:35;19.47;63.34
65058;HTU21D;51644;51.068;5.860;2022-09-20T09:05:39;19.60;62.98
65058;HTU21D;51644;51.068;5.860;2022-09-20T09:06:38;19.77;62.53
65058;HTU21D;51644;51.068;5.860;2022-09-20T09:07:37;19.86;62.10
65058;HTU21D;51644;51.068;5.860;2022-09-20T09:08:38;19.98;61.65
65058;HTU21D;51644;51.068;5.860;2022-09-20T09:09:41;20.12;61.50
65058;HTU21D;51644;51.068;5.860;2022-09-20T09:10:44;20.25;61.16
65058;HTU21D;51644;51.068;5.860;2022-09-20T09:11:45;20.35;60.80
65058;HTU21D;51644;51.068;5.860;2022-09-20T09:12:46;20.41;60.31
65058;HTU21D;51644;51.068;5.860;2022-09-20T09:13:58;20.45;59.93
65058;HTU21D;51644;51.068;5.860;2022-09-20T09:15:04;20.48;59.62
65058;HTU21D;51644;51.068;5.860;2022-09-20T09:16:18;20.48;59.19
65058;HTU21D;51644;51.068;5.860;2022-09-20T09:17:21;20.49;59.10
65058;HTU21D;51644;51.068;5.860;2022-09-20T09:18:29;20.46;58.77
65058;HTU21D;51644;51.068;5.860;2022-09-20T09:19:31;20.42;58.76
65058;HTU21D;51644;51.068;5.860;2022-09-20T09:20:40;20.40;58.80
65058;HTU21D;51644;51.068;5.860;2022-09-20T09:21:42;20.40;58.88
65058;HTU21D;51644;51.068;5.860;2022-09-20T09:22:43;20.44;58.93
65058;HTU21D;51644;51.068;5.860;2022-09-20T09:24:02;20.46;58.75
65058;HTU21D;51644;51.068;5.860;2022-09-20T09:26:23;20.54;58.41
65058;HTU21D;51644;51.068;5.860;2022-09-20T09:27:23;20.53;58.47
65058;HTU21D;51644;51.068;5.860;2022-09-20T09:28:24;20.56;58.47
65058;HTU21D;51644;51.068;5.860;2022-09-20T09:29:23;20.60;58.34
65058;HTU21D;51644;51.068;5.860;2022-09-20T09:30:34;20.64;58.20
65058;HTU21D;51644;51.068;5.860;2022-09-20T09:31:33;20.70;58.41
65058;HTU21D;51644;51.068;5.860;2022-09-20T09:32:31;20.77;58.34
65058;HTU21D;51644;51.068;5.860;2022-09-20T09:33:33;20.84;58.02
65058;HTU21D;51644;51.068;5.860;2022-09-20T09:34:33;20.93;57.40
65058;HTU21D;51644;51.068;5.860;2022-09-20T09:35:34;21.05;57.01